Terminal Aerodrome Forecast
Issued by NWS

Home | Current Version | Previous Version | Text Only | Print | Product List | Glossary On
Versions: 1 2 3 4 5 6 7 8 9 10 11 12 13
000
FTUS43 KMQT 160500
TAFCMX
TAF
KCMX 160521Z 1606/1706 27012KT P6SM SKC
     FM161600 26014G24KT P6SM SCT060
     FM170100 27005KT P6SM BKN060
     FM170400 10007KT P6SM BKN060=

USA.gov is the U.S. government's official web portal to all federal, state and local government web resources and services.